createdAt,value
2019-05-18T00:01:57.757Z,67.75
2019-05-18T00:04:27.403Z,67.90
2019-05-18T00:06:57.214Z,68.01
2019-05-18T00:09:27.003Z,68.19
2019-05-18T00:11:56.729Z,68.30
2019-05-18T00:14:26.366Z,68.43
2019-05-18T00:16:56.122Z,68.51
2019-05-18T00:19:25.736Z,68.54
2019-05-18T00:21:55.484Z,68.54
2019-05-18T00:24:26.972Z,68.68
2019-05-18T00:26:56.580Z,68.76
2019-05-18T00:29:26.246Z,68.83
2019-05-18T00:31:55.833Z,68.84
2019-05-18T00:34:25.450Z,68.86
2019-05-18T00:36:55.065Z,69.01
2019-05-18T00:39:24.711Z,69.06
2019-05-18T00:41:54.303Z,69.11
2019-05-18T00:44:23.943Z,69.30
2019-05-18T00:46:53.551Z,69.10
2019-05-18T00:49:23.154Z,68.97
2019-05-18T00:51:52.764Z,69.05
2019-05-18T00:54:22.445Z,69.15
2019-05-18T00:56:52.087Z,69.10
2019-05-18T00:59:21.721Z,69.12
2019-05-18T01:01:51.305Z,69.20
2019-05-18T01:04:20.881Z,69.27
2019-05-18T01:06:50.475Z,69.33
2019-05-18T01:09:20.081Z,69.33
2019-05-18T01:11:49.672Z,69.27
2019-05-18T01:14:19.278Z,69.44
2019-05-18T01:16:48.862Z,69.42
2019-05-18T01:19:18.449Z,69.30
2019-05-18T01:21:48.034Z,69.21
2019-05-18T01:24:17.830Z,69.12
2019-05-18T01:26:47.666Z,69.01
2019-05-18T01:29:19.921Z,69.00
2019-05-18T01:31:49.595Z,68.96
2019-05-18T01:34:19.213Z,68.98
2019-05-18T01:36:48.823Z,69.03
2019-05-18T01:39:18.469Z,69.24
2019-05-18T01:41:48.079Z,69.24
2019-05-18T01:44:17.673Z,69.17
2019-05-18T01:46:47.293Z,69.21
2019-05-18T01:49:16.876Z,69.09
2019-05-18T01:51:46.472Z,69.05
2019-05-18T01:54:16.079Z,68.83
2019-05-18T01:56:45.799Z,68.73
2019-05-18T01:59:15.435Z,68.61
2019-05-18T02:01:45.091Z,68.37
2019-05-18T02:04:14.788Z,68.29
2019-05-18T02:06:44.422Z,68.45
2019-05-18T02:09:14.095Z,68.51
2019-05-18T02:11:43.781Z,68.58
2019-05-18T02:14:13.408Z,68.60
2019-05-18T02:16:43.045Z,68.60
2019-05-18T02:19:12.671Z,68.62
2019-05-18T02:21:42.288Z,68.49
2019-05-18T02:24:11.928Z,68.44
2019-05-18T02:26:41.507Z,68.41
2019-05-18T02:29:11.125Z,68.29
2019-05-18T02:31:40.751Z,68.32
2019-05-18T02:34:10.418Z,68.53
2019-05-18T02:36:40.120Z,68.63
2019-05-18T02:39:10.554Z,68.75
2019-05-18T02:41:40.165Z,68.71
2019-05-18T02:44:10.108Z,68.63
2019-05-18T02:46:39.715Z,68.54
2019-05-18T02:49:09.347Z,68.53
2019-05-18T02:51:39.099Z,68.64
2019-05-18T02:54:08.855Z,68.46
2019-05-18T02:56:38.513Z,68.29
2019-05-18T02:59:08.120Z,68.23
2019-05-18T03:01:37.750Z,68.27
2019-05-18T03:04:08.945Z,68.40
2019-05-18T03:06:38.591Z,68.39
2019-05-18T03:09:08.444Z,68.50
2019-05-18T03:11:38.108Z,68.68
2019-05-18T03:14:07.792Z,68.72
2019-05-18T03:16:37.460Z,68.76
2019-05-18T03:19:08.955Z,68.74
2019-05-18T03:21:38.511Z,68.71
2019-05-18T03:24:08.144Z,68.49
2019-05-18T03:26:37.733Z,68.41
2019-05-18T03:29:07.406Z,68.25
2019-05-18T03:31:37.064Z,68.12
2019-05-18T03:34:06.664Z,67.88
2019-05-18T03:36:36.399Z,67.69
2019-05-18T03:39:07.291Z,67.31
2019-05-18T03:41:36.985Z,66.98
2019-05-18T03:44:06.589Z,66.86
2019-05-18T03:46:36.230Z,66.80
2019-05-18T03:49:05.858Z,66.76
2019-05-18T03:51:35.516Z,66.61
2019-05-18T03:54:05.215Z,66.56
2019-05-18T03:56:34.849Z,66.32
2019-05-18T03:59:04.621Z,66.29
2019-05-18T04:01:34.233Z,66.47
2019-05-18T04:04:03.841Z,66.36
2019-05-18T04:06:33.424Z,66.04
2019-05-18T04:09:03.704Z,65.67
2019-05-18T04:11:33.353Z,65.50
2019-05-18T04:14:07.663Z,65.22
2019-05-18T04:16:34.367Z,64.99
2019-05-18T04:19:05.260Z,64.47
2019-05-18T04:21:34.871Z,64.22
2019-05-18T04:24:04.446Z,64.15
2019-05-18T04:26:34.068Z,63.94
2019-05-18T04:29:03.765Z,63.61
2019-05-18T04:31:33.353Z,63.31
2019-05-18T04:34:03.002Z,62.92
2019-05-18T04:36:36.140Z,62.49
2019-05-18T04:39:07.515Z,61.73
2019-05-18T04:41:37.151Z,61.27
2019-05-18T04:44:06.997Z,60.97
2019-05-18T04:46:37.088Z,60.44
2019-05-18T04:49:06.879Z,60.12
2019-05-18T04:51:36.648Z,59.87
2019-05-18T04:54:06.301Z,59.50
2019-05-18T04:56:35.922Z,59.03
2019-05-18T04:59:05.712Z,58.61
2019-05-18T05:01:35.284Z,58.48
2019-05-18T05:04:04.938Z,58.11
2019-05-18T05:06:34.597Z,57.82
2019-05-18T05:09:05.852Z,57.62
2019-05-18T05:11:35.467Z,57.50
2019-05-18T05:14:13.943Z,57.35
2019-05-18T05:16:43.513Z,57.30
2019-05-18T05:19:13.141Z,56.79
2019-05-18T05:21:46.476Z,56.50
2019-05-18T05:24:16.347Z,56.42
2019-05-18T05:26:46.110Z,56.11
2019-05-18T05:29:15.742Z,55.68
2019-05-18T05:31:45.358Z,55.57
2019-05-18T05:34:14.980Z,55.41
2019-05-18T05:36:44.687Z,55.25
2019-05-18T05:39:14.298Z,54.72
2019-05-18T05:41:43.901Z,54.31
2019-05-18T05:44:13.679Z,54.19
2019-05-18T05:46:43.292Z,53.95
2019-05-18T05:49:22.628Z,53.88
2019-05-18T05:51:52.237Z,53.53
2019-05-18T05:54:26.172Z,53.32
2019-05-18T05:56:55.793Z,53.08
2019-05-18T05:59:25.426Z,52.82
2019-05-18T06:01:55.053Z,52.78
2019-05-18T06:04:24.793Z,52.29
2019-05-18T06:06:54.482Z,52.11
2019-05-18T06:09:24.119Z,51.74
2019-05-18T06:11:53.804Z,51.93
2019-05-18T06:14:23.873Z,52.18
2019-05-18T06:16:59.722Z,51.92
2019-05-18T06:19:30.005Z,52.08
2019-05-18T06:22:07.001Z,51.81
2019-05-18T06:24:36.626Z,51.13
2019-05-18T06:27:06.287Z,51.08
2019-05-18T06:29:35.943Z,50.83
2019-05-18T06:32:05.603Z,50.42
2019-05-18T06:34:35.402Z,49.90
2019-05-18T06:37:05.050Z,49.66
2019-05-18T06:39:36.306Z,49.37
2019-05-18T06:42:05.908Z,49.12
2019-05-18T06:44:37.377Z,48.61
2019-05-18T06:47:07.039Z,48.42
2019-05-18T06:49:36.657Z,48.36
2019-05-18T06:52:09.681Z,48.22
2019-05-18T06:54:43.115Z,47.70
2019-05-18T06:57:17.416Z,47.45
2019-05-18T06:59:47.214Z,47.05
2019-05-18T07:02:16.791Z,46.56
2019-05-18T07:04:46.514Z,46.14
2019-05-18T07:07:16.135Z,45.86
2019-05-18T07:09:45.764Z,45.63
2019-05-18T07:12:15.387Z,45.39
2019-05-18T07:14:45.021Z,45.30
2019-05-18T07:17:14.813Z,44.81
2019-05-18T07:19:44.487Z,44.62
2019-05-18T07:22:14.362Z,44.02
2019-05-18T07:24:44.024Z,43.87
2019-05-18T07:27:13.679Z,43.56
2019-05-18T07:29:43.273Z,42.90
2019-05-18T07:32:13.000Z,42.40
2019-05-18T07:34:42.826Z,41.93
2019-05-18T07:37:12.446Z,40.98
2019-05-18T07:39:42.039Z,40.95
2019-05-18T07:42:11.666Z,40.29
2019-05-18T07:44:41.291Z,40.35
2019-05-18T07:47:12.396Z,41.20
2019-05-18T07:49:45.213Z,40.38
2019-05-18T07:52:17.250Z,40.11
2019-05-18T07:54:46.346Z,40.04
2019-05-18T07:57:15.962Z,39.94
2019-05-18T07:59:45.598Z,39.41
2019-05-18T08:02:15.316Z,38.76
2019-05-18T08:04:44.925Z,38.45
2019-05-18T08:07:14.547Z,37.76
2019-05-18T08:09:44.133Z,38.02
2019-05-18T08:12:13.778Z,38.23
2019-05-18T08:23:30.881Z,36.08
2019-05-18T08:26:00.463Z,34.06
2019-05-18T08:28:30.101Z,31.68
2019-05-18T08:30:59.721Z,31.29
2019-05-18T08:33:29.326Z,30.73
2019-05-18T08:35:58.924Z,31.13
2019-05-18T08:38:28.636Z,30.46
2019-05-18T08:40:58.251Z,30.25
2019-05-18T08:43:28.484Z,30.92
2019-05-18T08:45:58.278Z,31.08
2019-05-18T08:48:28.670Z,30.40
2019-05-18T08:50:58.312Z,30.99
2019-05-18T08:53:27.927Z,29.36
2019-05-18T08:55:57.635Z,27.17
2019-05-18T08:58:27.256Z,26.22
2019-05-18T09:00:56.865Z,25.23
2019-05-18T09:03:29.445Z,26.15
2019-05-18T09:05:59.209Z,24.54
2019-05-18T09:08:28.913Z,24.01
2019-05-18T09:11:01.023Z,22.76
2019-05-18T09:13:30.630Z,21.51
2019-05-18T09:16:00.694Z,20.33
2019-05-18T09:18:31.589Z,21.60
2019-05-18T09:21:02.862Z,23.31
2019-05-18T09:23:34.299Z,22.91
2019-05-18T09:26:07.012Z,21.91
2019-05-18T09:28:38.272Z,22.01
2019-05-18T09:31:08.025Z,21.72
2019-05-18T09:33:37.722Z,20.45
2019-05-18T09:36:07.401Z,19.85
2019-05-18T09:38:37.139Z,18.42
2019-05-18T09:41:06.866Z,19.62
2019-05-18T09:43:38.198Z,22.01
2019-05-18T09:46:08.037Z,23.22
2019-05-18T09:48:37.796Z,20.77
2019-05-18T09:51:07.535Z,18.76
2019-05-18T09:53:49.461Z,17.63
2019-05-18T09:56:08.599Z,18.94
2019-05-18T09:58:38.372Z,20.14
2019-05-18T10:01:08.016Z,22.28
2019-05-18T10:03:38.012Z,23.97
2019-05-18T10:06:07.840Z,23.38
2019-05-18T10:08:37.454Z,20.84
2019-05-18T10:11:07.136Z,18.34
2019-05-18T10:13:36.688Z,16.41
2019-05-18T10:16:06.320Z,15.89
2019-05-18T10:18:35.905Z,14.75
2019-05-18T10:21:05.865Z,13.63
2019-05-18T10:23:35.481Z,13.34
2019-05-18T10:26:05.145Z,14.07
2019-05-18T10:28:34.810Z,13.89
2019-05-18T10:31:05.106Z,13.51
2019-05-18T10:33:34.867Z,12.59
2019-05-18T10:36:04.502Z,12.20
2019-05-18T10:38:34.116Z,11.57
2019-05-18T10:41:03.766Z,11.87
2019-05-18T10:43:33.377Z,11.35
2019-05-18T10:46:03.096Z,10.87
2019-05-18T10:48:32.717Z,10.29
2019-05-18T10:51:05.406Z,10.04
2019-05-18T10:53:33.663Z,9.09
2019-05-18T10:56:03.306Z,8.80
2019-05-18T10:58:32.975Z,9.48
2019-05-18T11:01:02.657Z,9.91
2019-05-18T11:03:32.276Z,9.45
2019-05-18T11:06:01.871Z,9.05
2019-05-18T11:08:31.496Z,10.06
2019-05-18T11:11:01.080Z,10.41
2019-05-18T11:13:30.726Z,10.41
2019-05-18T11:16:00.316Z,9.62
2019-05-18T11:18:30.383Z,9.65
2019-05-18T11:21:00.138Z,9.22
2019-05-18T11:23:42.831Z,8.76
2019-05-18T11:26:01.058Z,8.44
2019-05-18T11:28:30.694Z,8.73
2019-05-18T11:31:00.382Z,8.53
2019-05-18T11:33:29.988Z,8.45
2019-05-18T11:35:59.584Z,8.00
2019-05-18T11:38:29.270Z,8.21
2019-05-18T11:40:58.910Z,7.89
2019-05-18T11:43:28.518Z,7.41
2019-05-18T11:45:58.186Z,7.31
2019-05-18T11:48:27.805Z,7.92
2019-05-18T11:50:57.395Z,7.21
2019-05-18T11:53:27.003Z,7.50
2019-05-18T11:55:56.618Z,8.65
2019-05-18T11:58:26.236Z,8.42
2019-05-18T12:00:55.859Z,8.14
2019-05-18T12:03:25.539Z,7.89
2019-05-18T12:05:56.104Z,6.68
2019-05-18T12:08:25.716Z,7.44
2019-05-18T12:10:56.313Z,8.23
2019-05-18T12:13:26.196Z,7.99
2019-05-18T12:15:55.784Z,7.84
2019-05-18T12:18:25.426Z,7.56
2019-05-18T12:20:55.092Z,7.34
2019-05-18T12:23:24.702Z,6.46
2019-05-18T12:25:54.288Z,6.74
2019-05-18T12:28:23.971Z,6.66
2019-05-18T12:30:53.611Z,7.02
2019-05-18T12:33:23.311Z,7.11
2019-05-18T12:35:53.011Z,6.64
2019-05-18T12:38:22.605Z,6.86
2019-05-18T12:40:52.286Z,7.74
2019-05-18T12:43:21.919Z,7.46
2019-05-18T12:45:51.656Z,7.27
2019-05-18T12:48:21.365Z,7.39
2019-05-18T12:54:51.693Z,6.79
2019-05-18T12:57:21.299Z,7.16
2019-05-18T12:59:50.905Z,6.71
2019-05-18T13:02:20.514Z,6.61
2019-05-18T13:04:50.458Z,6.54
2019-05-18T13:07:20.075Z,7.05
2019-05-18T13:09:50.010Z,7.29
2019-05-18T13:12:19.613Z,7.96
2019-05-18T13:14:49.253Z,8.04
2019-05-18T13:17:21.282Z,7.51
2019-05-18T13:19:50.259Z,6.89
2019-05-18T13:22:19.942Z,6.73
2019-05-18T13:24:52.175Z,7.40
2019-05-18T13:27:20.979Z,6.93
2019-05-18T13:29:50.584Z,7.35
2019-05-18T13:32:20.185Z,7.69
2019-05-18T13:34:49.831Z,7.91
2019-05-18T13:37:19.500Z,7.55
2019-05-18T13:39:49.092Z,7.44
2019-05-18T13:42:18.714Z,7.04
2019-05-18T13:44:48.333Z,6.63
2019-05-18T13:47:17.955Z,7.28
2019-05-18T13:49:47.580Z,6.66
2019-05-18T13:52:17.180Z,7.24
2019-05-18T13:55:01.835Z,9.68
2019-05-18T13:57:19.268Z,12.62
2019-05-18T13:59:48.885Z,14.58
2019-05-18T14:02:18.500Z,12.76
2019-05-18T14:04:48.090Z,12.21
2019-05-18T14:07:17.695Z,10.95
2019-05-18T14:09:47.307Z,13.06
2019-05-18T14:12:16.899Z,15.75
2019-05-18T14:14:46.535Z,17.88
2019-05-18T14:17:16.122Z,19.95
2019-05-18T14:19:45.742Z,19.51
2019-05-18T14:22:15.365Z,16.85
2019-05-18T14:24:44.963Z,17.39
2019-05-18T14:27:14.563Z,15.07
2019-05-18T14:29:44.173Z,12.41
2019-05-18T14:32:13.900Z,10.47
2019-05-18T14:34:43.507Z,9.49
2019-05-18T14:37:13.095Z,9.15
2019-05-18T14:39:42.739Z,9.74
2019-05-18T14:42:12.348Z,10.14
2019-05-18T14:44:41.988Z,10.53
2019-05-18T14:47:11.565Z,10.95
2019-05-18T14:49:41.278Z,10.58
2019-05-18T14:52:12.174Z,10.52
2019-05-18T14:54:42.171Z,10.36
2019-05-18T14:57:12.063Z,10.22
2019-05-18T14:59:41.656Z,10.37
2019-05-18T15:02:11.246Z,10.30
2019-05-18T15:04:40.836Z,9.79
2019-05-18T15:07:10.442Z,9.74
2019-05-18T15:09:40.081Z,9.73
2019-05-18T15:12:09.665Z,9.95
2019-05-18T15:14:39.276Z,9.95
2019-05-18T15:17:08.902Z,9.92
2019-05-18T15:19:38.583Z,10.03
2019-05-18T15:22:08.251Z,10.18
2019-05-18T15:24:37.949Z,10.37
2019-05-18T15:27:07.604Z,10.63
2019-05-18T15:29:37.229Z,10.61
2019-05-18T15:32:06.874Z,10.68
2019-05-18T15:34:36.549Z,11.22
2019-05-18T15:37:06.161Z,13.33
2019-05-18T15:39:35.851Z,16.71
2019-05-18T15:42:05.663Z,19.64
2019-05-18T15:44:35.325Z,21.39
2019-05-18T15:47:05.170Z,22.51
2019-05-18T15:49:35.078Z,23.80
2019-05-18T15:52:04.838Z,25.18
2019-05-18T15:54:36.215Z,26.74
2019-05-18T15:57:06.009Z,27.60
2019-05-18T15:59:35.631Z,28.64
2019-05-18T16:02:06.584Z,29.60
2019-05-18T16:04:36.478Z,30.42
2019-05-18T16:07:06.450Z,30.86
2019-05-18T16:09:36.056Z,31.45
2019-05-18T16:12:07.093Z,31.77
2019-05-18T16:14:36.663Z,32.35
2019-05-18T16:17:07.467Z,32.46
2019-05-18T16:19:37.164Z,32.77
2019-05-18T16:22:06.841Z,32.37
2019-05-18T16:24:36.425Z,32.33
2019-05-18T16:27:08.844Z,32.63
2019-05-18T16:29:38.438Z,33.15
2019-05-18T16:32:08.255Z,33.85
2019-05-18T16:34:37.827Z,34.01
2019-05-18T16:37:13.196Z,34.14
2019-05-18T16:39:42.753Z,34.18
2019-05-18T16:42:12.365Z,34.05
2019-05-18T16:44:41.958Z,34.45
2019-05-18T16:47:11.578Z,34.70
2019-05-18T16:49:41.198Z,35.08
2019-05-18T16:52:10.805Z,35.04
2019-05-18T16:54:40.458Z,35.34
2019-05-18T16:57:10.003Z,35.32
2019-05-18T16:59:39.600Z,35.53
2019-05-18T17:02:09.496Z,36.01
2019-05-18T17:04:39.088Z,36.35
2019-05-18T17:07:08.691Z,36.50
2019-05-18T17:09:38.361Z,36.51
2019-05-18T17:12:08.040Z,36.58
2019-05-18T17:14:37.666Z,36.78
2019-05-18T17:17:07.275Z,36.64
2019-05-18T17:19:36.867Z,36.42
2019-05-18T17:22:06.496Z,36.69
2019-05-18T17:24:36.081Z,37.01
2019-05-18T17:27:05.702Z,37.41
2019-05-18T17:29:35.331Z,37.59
2019-05-18T17:32:05.227Z,37.45
2019-05-18T17:34:34.860Z,37.69
2019-05-18T17:37:04.461Z,37.57
2019-05-18T17:39:34.102Z,38.04
2019-05-18T17:42:05.107Z,38.60
2019-05-18T17:44:35.065Z,39.03
2019-05-18T17:47:04.760Z,39.58
2019-05-18T17:49:34.350Z,39.64
2019-05-18T17:52:03.955Z,39.88
2019-05-18T17:54:33.648Z,40.24
2019-05-18T17:57:08.341Z,40.54
2019-05-18T17:59:34.606Z,40.81
2019-05-18T18:02:04.227Z,41.05
2019-05-18T18:04:33.839Z,41.12
2019-05-18T18:07:03.494Z,41.31
2019-05-18T18:09:33.086Z,41.41
2019-05-18T18:12:02.708Z,41.81
2019-05-18T18:14:32.373Z,42.27
2019-05-18T18:17:02.038Z,42.66
2019-05-18T18:19:31.698Z,43.04
2019-05-18T18:22:01.315Z,43.37
2019-05-18T18:24:30.958Z,43.64
2019-05-18T18:27:00.572Z,43.78
2019-05-18T18:29:30.155Z,43.79
2019-05-18T18:31:59.777Z,44.19
2019-05-18T18:34:29.384Z,44.70
2019-05-18T18:37:01.320Z,44.96
2019-05-18T18:39:30.677Z,45.17
2019-05-18T18:42:00.330Z,45.49
2019-05-18T18:44:29.973Z,45.64
2019-05-18T18:47:21.206Z,45.83
2019-05-18T18:49:50.757Z,46.02
2019-05-18T18:52:20.419Z,46.17
2019-05-18T18:54:50.020Z,46.48
2019-05-18T18:57:19.638Z,46.57
2019-05-18T18:59:56.869Z,46.76
2019-05-18T19:02:26.360Z,47.09
2019-05-18T19:09:04.785Z,47.53
2019-05-18T19:11:34.427Z,47.86
2019-05-18T19:14:05.449Z,48.04
2019-05-18T19:16:35.073Z,48.29
2019-05-18T19:19:04.657Z,48.64
2019-05-18T19:21:34.256Z,48.90
2019-05-18T19:24:03.884Z,49.06
2019-05-18T19:26:33.486Z,49.26
2019-05-18T19:29:03.158Z,49.57
2019-05-18T19:31:32.775Z,49.68
2019-05-18T19:34:02.410Z,50.04
2019-05-18T19:36:32.015Z,50.34
2019-05-18T19:39:01.658Z,50.50
2019-05-18T19:41:31.238Z,50.82
2019-05-18T19:44:00.847Z,51.04
2019-05-18T19:46:30.453Z,51.33
2019-05-18T19:49:00.084Z,51.46
2019-05-18T19:51:29.965Z,51.63
2019-05-18T19:53:59.679Z,51.59
2019-05-18T19:56:29.306Z,51.83
2019-05-18T19:58:58.920Z,51.76
2019-05-18T20:01:28.529Z,51.96
2019-05-18T20:03:58.135Z,52.09
2019-05-18T20:06:27.747Z,52.32
2019-05-18T20:08:57.386Z,52.62
2019-05-18T20:11:26.989Z,52.81
2019-05-18T20:13:56.611Z,53.16
2019-05-18T20:16:26.732Z,53.47
2019-05-18T20:18:56.795Z,53.74
2019-05-18T20:21:27.078Z,54.17
2019-05-18T20:23:56.728Z,54.42
2019-05-18T20:26:26.329Z,54.75
2019-05-18T20:28:56.726Z,55.04
2019-05-18T20:31:27.969Z,55.34
2019-05-18T20:33:57.635Z,55.51
2019-05-18T20:36:27.219Z,55.78
2019-05-18T20:38:56.828Z,56.07
2019-05-18T20:41:26.454Z,56.35
2019-05-18T20:43:56.060Z,56.57
2019-05-18T20:46:25.680Z,56.69
2019-05-18T20:48:55.463Z,56.91
2019-05-18T20:51:25.126Z,57.51
2019-05-18T20:53:54.711Z,57.52
2019-05-18T20:56:24.363Z,57.63
2019-05-18T20:58:53.969Z,57.81
2019-05-18T21:01:23.711Z,58.07
2019-05-18T21:03:53.321Z,58.21
2019-05-18T21:06:22.960Z,58.47
2019-05-18T21:08:52.573Z,58.52
2019-05-18T21:11:22.189Z,58.51
2019-05-18T21:13:51.785Z,58.66
2019-05-18T21:16:21.394Z,58.42
2019-05-18T21:18:50.999Z,58.35
2019-05-18T21:21:25.410Z,58.30
2019-05-18T21:23:51.950Z,58.19
2019-05-18T21:26:21.618Z,58.11
2019-05-18T21:28:59.157Z,58.35
2019-05-18T21:31:22.604Z,58.51
2019-05-18T21:33:52.224Z,58.81
2019-05-18T21:36:21.847Z,58.88
2019-05-18T21:38:51.465Z,58.94
2019-05-18T21:41:21.058Z,59.07
2019-05-18T21:43:50.688Z,59.24
2019-05-18T21:46:20.281Z,59.39
2019-05-18T21:48:49.904Z,59.57
2019-05-18T21:51:19.541Z,59.72
2019-05-18T21:53:49.157Z,59.78
2019-05-18T21:56:18.774Z,60.07
2019-05-18T21:58:48.383Z,60.12
2019-05-18T22:01:18.180Z,60.25
2019-05-18T22:03:48.363Z,60.30
2019-05-18T22:06:18.337Z,60.52
2019-05-18T22:08:48.004Z,60.51
2019-05-18T22:11:17.631Z,60.52
2019-05-18T22:13:47.251Z,60.53
2019-05-18T22:16:16.853Z,60.63
2019-05-18T22:18:46.576Z,60.57
2019-05-18T22:21:16.196Z,60.68
2019-05-18T22:23:46.163Z,60.89
2019-05-18T22:26:15.768Z,61.12
2019-05-18T22:28:45.435Z,61.22
2019-05-18T22:31:15.005Z,61.30
2019-05-18T22:33:44.604Z,61.30
2019-05-18T22:36:14.220Z,61.27
2019-05-18T22:38:43.813Z,61.23
2019-05-18T22:41:13.669Z,61.32
2019-05-18T22:43:43.295Z,61.48
2019-05-18T22:46:12.952Z,61.70
2019-05-18T22:48:42.534Z,61.83
2019-05-18T22:51:12.232Z,61.85
2019-05-18T22:53:41.822Z,62.11
2019-05-18T22:56:11.429Z,62.06
2019-05-18T22:58:41.068Z,62.14
2019-05-18T23:01:10.685Z,62.08
2019-05-18T23:03:40.300Z,62.00
2019-05-18T23:06:09.921Z,62.02
2019-05-18T23:08:39.530Z,62.19
2019-05-18T23:11:09.144Z,62.23
2019-05-18T23:13:38.758Z,62.23
2019-05-18T23:16:08.365Z,62.19
2019-05-18T23:18:38.001Z,62.13
2019-05-18T23:21:07.620Z,62.06
2019-05-18T23:23:37.225Z,62.06
2019-05-18T23:26:06.997Z,62.02
2019-05-18T23:28:36.595Z,62.01
2019-05-18T23:31:06.208Z,61.94
2019-05-18T23:33:35.809Z,61.86
2019-05-18T23:36:05.442Z,61.81
2019-05-18T23:38:35.046Z,61.83
2019-05-18T23:41:04.675Z,61.85
2019-05-18T23:43:34.299Z,61.74
2019-05-18T23:46:03.909Z,61.81
2019-05-18T23:48:33.565Z,61.72
2019-05-18T23:51:03.141Z,61.84
2019-05-18T23:53:32.778Z,61.80
2019-05-18T23:56:02.570Z,61.68
2019-05-18T23:58:32.160Z,61.66
